Time;durP1;ratioP1;P1;durP2;ratioP2;P2;SDS_P1;SDS_P2;PMS_P1;PMS_P2;Temp;Humidity;BMP_temperature;BMP_pressure;BME280_temperature;BME280_humidity;BME280_pressure;Samples;Min_cycle;Max_cycle;Signal;HPM_P1;HPM_P2
2021/08/04 00:02:13;;;;;;;;;;;;;;;28.78;38.54;98807.34;5033037;28;20335;-75
2021/08/04 00:04:38;;;;;;;;;;;;;;;28.74;38.66;98814.84;5033471;28;19956;-75
2021/08/04 00:07:03;;;;;;;;;;;;;;;28.67;39.67;98817.63;5033452;28;20012;-75
2021/08/04 00:09:29;;;;;;;;;;;;;;;28.58;40.41;98821.59;5032455;28;19917;-75
2021/08/04 00:11:54;;;;;;;;;;;;;;;28.50;40.27;98814.56;5033383;28;20277;-75
2021/08/04 00:14:20;;;;;;;;;;;;;;;28.45;40.16;98823.25;5031239;28;19917;-75
2021/08/04 00:16:45;;;;;;;;;;;;;;;28.38;40.71;98817.81;5032858;28;19938;-76
2021/08/04 00:19:10;;;;;;;;;;;;;;;28.32;40.76;98817.47;5032500;28;19917;-76
2021/08/04 00:21:36;;;;;;;;;;;;;;;28.22;40.97;98815.53;5032782;28;19913;-76
2021/08/04 00:24:01;;;;;;;;;;;;;;;28.13;41.35;98813.25;5033168;28;19917;-75
2021/08/04 00:26:26;;;;;;;;;;;;;;;28.04;41.91;98818.34;5032959;28;19932;-75
2021/08/04 00:28:51;;;;;;;;;;;;;;;27.98;42.22;98811.69;5032657;28;20340;-75
2021/08/04 00:31:17;;;;;;;;;;;;;;;27.92;42.99;98809.38;5032522;28;19921;-75
2021/08/04 00:33:42;;;;;;;;;;;;;;;27.85;42.80;98801.16;5032883;28;19986;-74
2021/08/04 00:36:07;;;;;;;;;;;;;;;27.82;43.18;98799.22;5032728;28;19952;-74
2021/08/04 00:38:32;;;;;;;;;;;;;;;27.76;44.10;98798.06;5032585;28;19913;-75
2021/08/04 00:40:58;;;;;;;;;;;;;;;27.71;43.79;98806.72;5031453;28;20408;-75
2021/08/04 00:43:23;;;;;;;;;;;;;;;27.61;43.71;98800.88;5032216;28;19940;-74
2021/08/04 00:45:48;;;;;;;;;;;;;;;27.54;43.96;98789.91;5032338;28;19917;-75
2021/08/04 00:48:14;;;;;;;;;;;;;;;27.47;44.18;98789.91;5032845;28;20299;-75
2021/08/04 00:50:39;;;;;;;;;;;;;;;27.38;44.58;98790.31;5032674;28;19913;-74
2021/08/04 00:53:17;;;;;;;;;;;;;;;27.31;44.70;98799.34;5032528;28;19913;-74
2021/08/04 00:55:42;;;;;;;;;;;;;;;27.19;44.97;98794.25;5032523;28;19913;-74
2021/08/04 00:58:07;;;;;;;;;;;;;;;27.13;45.47;98795.84;5031612;28;20319;-74
2021/08/04 01:00:33;;;;;;;;;;;;;;;27.08;45.74;98796.25;5031962;28;20012;-74
2021/08/04 01:03:01;;;;;;;;;;;;;;;27.02;45.98;98787.63;5032392;28;19971;-74
2021/08/04 01:05:34;;;;;;;;;;;;;;;27.00;46.36;98787.22;5031836;28;19920;-74
2021/08/04 01:07:59;;;;;;;;;;;;;;;26.93;47.45;98788.03;5031879;28;19917;-74
2021/08/04 01:10:39;;;;;;;;;;;;;;;26.88;46.92;98793.91;5031996;28;19913;-75
2021/08/04 01:13:13;;;;;;;;;;;;;;;26.88;47.06;98802.13;5031593;28;19917;-75
2021/08/04 01:15:42;;;;;;;;;;;;;;;26.85;47.11;98800.16;5016144;28;19917;-75
2021/08/04 01:18:10;;;;;;;;;;;;;;;26.82;47.06;98801.72;5031791;28;19924;-76
2021/08/04 01:20:35;;;;;;;;;;;;;;;26.76;47.47;98799.78;5030634;28;20424;-77
2021/08/04 01:23:19;;;;;;;;;;;;;;;26.67;47.27;98795.44;5032049;28;20051;-76
2021/08/04 01:26:16;;;;;;;;;;;;;;;26.55;47.62;98795.81;5031798;28;19966;-76
2021/08/04 01:28:44;;;;;;;;;;;;;;;26.45;47.94;98783.69;5029426;28;20458;-76
2021/08/04 01:31:11;;;;;;;;;;;;;;;26.33;48.22;98781.28;5031663;28;19917;-75
2021/08/04 01:33:38;;;;;;;;;;;;;;;26.28;48.82;98784.41;5030356;28;19936;-77
2021/08/04 01:36:04;;;;;;;;;;;;;;;26.24;48.50;98784.41;5030557;28;19920;-77
2021/08/04 01:38:30;;;;;;;;;;;;;;;26.21;48.94;98785.19;5030516;28;19913;-77
2021/08/04 01:40:56;;;;;;;;;;;;;;;26.20;49.32;98781.66;5032035;28;19952;-79
2021/08/04 01:43:23;;;;;;;;;;;;;;;26.15;49.92;98786.75;5030319;28;19920;-75
2021/08/04 01:45:49;;;;;;;;;;;;;;;26.12;50.17;98787.50;5031305;28;19917;-75
2021/08/04 01:48:15;;;;;;;;;;;;;;;26.05;50.28;98785.50;5031722;28;19920;-75
2021/08/04 01:50:40;;;;;;;;;;;;;;;26.02;50.23;98781.59;5031401;28;20000;-75
2021/08/04 01:53:07;;;;;;;;;;;;;;;26.01;50.25;98785.50;5031949;28;19913;-75
2021/08/04 01:55:32;;;;;;;;;;;;;;;25.99;50.10;98785.09;5031027;28;19917;-75
2021/08/04 01:57:58;;;;;;;;;;;;;;;25.98;50.67;98789.00;5031589;28;19928;-75
2021/08/04 02:00:23;;;;;;;;;;;;;;;25.96;50.65;98791.34;5031000;28;19982;-75
2021/08/04 02:02:49;;;;;;;;;;;;;;;25.97;50.79;98800.34;5031225;28;19971;-75
2021/08/04 02:05:14;;;;;;;;;;;;;;;25.97;51.26;98794.88;5031164;28;19913;-75
2021/08/04 02:07:45;;;;;;;;;;;;;;;25.96;51.21;98791.34;5031578;28;19917;-75
2021/08/04 02:10:14;;;;;;;;;;;;;;;25.96;51.34;98788.59;5030053;28;19913;-75
2021/08/04 02:12:41;;;;;;;;;;;;;;;26.00;51.13;98796.81;5031241;28;19920;-75
2021/08/04 02:15:10;;;;;;;;;;;;;;;26.02;51.10;98797.22;5031089;28;20017;-75
2021/08/04 02:17:46;;;;;;;;;;;;;;;26.08;51.11;98797.69;5031556;28;19913;-75
2021/08/04 02:20:23;;;;;;;;;;;;;;;26.11;51.09;98800.44;5031659;28;19963;-75
2021/08/04 02:22:57;;;;;;;;;;;;;;;26.18;51.10;98805.94;5030806;28;19917;-75
2021/08/04 02:25:35;;;;;;;;;;;;;;;26.23;50.96;98809.47;5030822;28;20415;-75
2021/08/04 02:28:01;;;;;;;;;;;;;;;26.28;50.87;98809.06;5031611;28;19913;-75
2021/08/04 02:30:27;;;;;;;;;;;;;;;26.31;50.83;98811.81;5030123;28;19921;-74
2021/08/04 02:32:53;;;;;;;;;;;;;;;26.33;50.67;98811.44;5030937;28;19913;-75
2021/08/04 02:35:19;;;;;;;;;;;;;;;26.35;50.91;98814.59;5031129;28;20449;-75
2021/08/04 02:37:44;;;;;;;;;;;;;;;26.34;50.90;98815.75;5031098;28;19913;-75
2021/08/04 02:40:10;;;;;;;;;;;;;;;26.35;50.56;98817.31;5035046;28;19917;-75
2021/08/04 02:42:37;;;;;;;;;;;;;;;26.34;50.75;98813.81;5034511;28;20307;-74
2021/08/04 02:45:03;;;;;;;;;;;;;;;26.36;50.33;98829.84;5033227;28;19917;-75
2021/08/04 02:47:29;;;;;;;;;;;;;;;26.36;50.20;98827.13;5034046;28;20384;-75
2021/08/04 02:49:55;;;;;;;;;;;;;;;26.39;50.02;98829.09;5034805;28;19920;-75
2021/08/04 02:52:21;;;;;;;;;;;;;;;26.39;50.55;98836.53;5034821;28;20399;-75
2021/08/04 02:54:46;;;;;;;;;;;;;;;26.40;51.03;98832.59;5034634;28;20348;-74
2021/08/04 02:57:12;;;;;;;;;;;;;;;26.34;51.23;98833.00;5033927;28;20007;-77
2021/08/04 02:59:37;;;;;;;;;;;;;;;26.30;51.62;98837.66;5033030;28;19921;-78
2021/08/04 03:02:03;;;;;;;;;;;;;;;26.24;51.36;98844.69;5034106;28;20000;-78
2021/08/04 03:04:28;;;;;;;;;;;;;;;26.22;51.48;98844.31;5033376;28;19913;-78
2021/08/04 03:06:53;;;;;;;;;;;;;;;26.20;51.52;98855.66;5033199;28;19917;-76
2021/08/04 03:09:19;;;;;;;;;;;;;;;26.19;51.81;98858.78;5034547;28;19917;-77
2021/08/04 03:11:44;;;;;;;;;;;;;;;26.17;51.91;98855.63;5034576;28;19936;-75
2021/08/04 03:14:09;;;;;;;;;;;;;;;26.19;52.00;98856.03;5032966;28;19919;-76
2021/08/04 03:16:34;;;;;;;;;;;;;;;26.19;51.57;98856.03;5034095;28;19917;-77
2021/08/04 03:19:00;;;;;;;;;;;;;;;26.21;51.46;98851.75;5033207;28;20387;-75
2021/08/04 03:21:25;;;;;;;;;;;;;;;26.24;51.23;98847.44;5033896;28;19913;-76
2021/08/04 03:23:50;;;;;;;;;;;;;;;26.26;50.81;98847.06;5032952;28;19913;-76
2021/08/04 03:26:16;;;;;;;;;;;;;;;26.30;50.39;98848.63;5033717;28;19917;-76
2021/08/04 03:28:41;;;;;;;;;;;;;;;26.33;50.35;98841.59;5032441;28;19916;-76
2021/08/04 03:31:06;;;;;;;;;;;;;;;26.36;50.42;98851.78;5032899;28;19932;-75
2021/08/04 03:33:31;;;;;;;;;;;;;;;26.38;49.87;98852.19;5032203;28;19924;-74
2021/08/04 03:35:57;;;;;;;;;;;;;;;26.42;50.21;98857.69;5033748;28;20391;-75
2021/08/04 03:38:22;;;;;;;;;;;;;;;26.44;50.58;98866.28;5032717;28;20350;-81
2021/08/04 03:40:47;;;;;;;;;;;;;;;26.51;50.21;98874.53;5031552;28;19929;-77
2021/08/04 03:43:12;;;;;;;;;;;;;;;26.56;49.41;98874.16;5033971;28;20380;-76
2021/08/04 03:45:38;;;;;;;;;;;;;;;26.62;48.76;98883.59;5033920;28;19913;-76
2021/08/04 03:48:03;;;;;;;;;;;;;;;26.68;48.78;98884.78;5015037;28;20296;-76
2021/08/04 03:50:28;;;;;;;;;;;;;;;26.74;49.42;98887.91;5012588;28;19914;-77
2021/08/04 03:52:54;;;;;;;;;;;;;;;26.76;49.68;98888.34;5053313;28;20436;-76
2021/08/04 03:55:19;;;;;;;;;;;;;;;26.68;50.50;98883.97;5033913;28;19920;-76
2021/08/04 03:57:44;;;;;;;;;;;;;;;26.62;50.94;98893.75;5033268;28;19963;-77
2021/08/04 04:00:10;;;;;;;;;;;;;;;26.62;51.86;98902.78;5034003;28;19913;-80
2021/08/04 04:02:36;;;;;;;;;;;;;;;26.67;51.52;98896.91;5031480;28;19925;-78
2021/08/04 04:05:01;;;;;;;;;;;;;;;26.73;51.82;98902.78;5033183;28;20015;-76
2021/08/04 04:07:26;;;;;;;;;;;;;;;26.75;51.87;98911.47;5032779;28;19924;-77
2021/08/04 04:09:52;;;;;;;;;;;;;;;26.93;51.43;98910.72;5033352;28;19913;-76
2021/08/04 04:12:17;;;;;;;;;;;;;;;27.21;50.90;98925.63;5032052;28;19917;-76
2021/08/04 04:14:42;;;;;;;;;;;;;;;27.50;50.21;98923.69;5032750;28;20335;-76
2021/08/04 04:17:07;;;;;;;;;;;;;;;27.84;48.95;98920.50;5032859;28;19952;-83
2021/08/04 04:19:33;;;;;;;;;;;;;;;28.17;48.20;98925.94;5031806;28;19920;-77
2021/08/04 04:21:58;;;;;;;;;;;;;;;28.53;47.63;98923.03;5032951;28;20003;-77
2021/08/04 04:24:23;;;;;;;;;;;;;;;28.83;46.75;98921.72;5033411;28;20011;-77
2021/08/04 04:26:50;;;;;;;;;;;;;;;29.15;46.24;98924.25;5032878;28;19917;-77
2021/08/04 04:29:15;;;;;;;;;;;;;;;29.46;45.45;98916.13;5033006;28;20016;-77
2021/08/04 04:31:42;;;;;;;;;;;;;;;29.67;45.17;98919.88;5033054;28;19949;-77
2021/08/04 04:34:07;;;;;;;;;;;;;;;29.82;44.97;98915.00;5032897;28;20365;-77
2021/08/04 04:36:32;;;;;;;;;;;;;;;29.87;44.56;98901.56;5032440;28;19964;-77
2021/08/04 04:38:57;;;;;;;;;;;;;;;30.11;44.42;98904.47;5031557;28;19916;-77
2021/08/04 04:41:23;;;;;;;;;;;;;;;30.32;43.68;98900.66;5032460;28;20292;-77
2021/08/04 04:43:48;;;;;;;;;;;;;;;30.50;43.03;98903.22;5032284;28;20110;-77
2021/08/04 04:46:13;;;;;;;;;;;;;;;30.66;42.66;98910.09;5031417;28;20136;-77
2021/08/04 04:48:38;;;;;;;;;;;;;;;30.89;42.74;98905.81;5032028;28;20067;-77
2021/08/04 04:51:04;;;;;;;;;;;;;;;31.08;42.01;98913.44;5031301;28;19936;-77
2021/08/04 04:53:29;;;;;;;;;;;;;;;31.27;42.06;98919.44;5032468;28;19920;-77
2021/08/04 04:55:54;;;;;;;;;;;;;;;31.42;41.84;98928.25;5031047;28;19913;-77
2021/08/04 04:58:20;;;;;;;;;;;;;;;31.57;41.30;98939.88;5031304;28;19970;-77
2021/08/04 05:00:45;;;;;;;;;;;;;;;31.77;41.04;98945.47;5031657;28;20427;-77
2021/08/04 05:03:10;;;;;;;;;;;;;;;32.00;40.59;98952.16;5032273;28;19920;-77
2021/08/04 05:05:35;;;;;;;;;;;;;;;31.90;40.51;98953.94;5031920;28;19913;-77
2021/08/04 05:08:01;;;;;;;;;;;;;;;32.01;40.49;98959.25;5032138;28;19917;-77
2021/08/04 05:10:26;;;;;;;;;;;;;;;32.07;40.05;98955.56;5031946;28;19917;-78
2021/08/04 05:12:51;;;;;;;;;;;;;;;32.09;40.00;98950.38;5031817;28;19936;-78
2021/08/04 05:15:16;;;;;;;;;;;;;;;32.20;39.93;98952.16;5032709;28;20315;-78
2021/08/04 05:17:42;;;;;;;;;;;;;;;32.22;40.06;98952.53;5032002;28;19913;-78
2021/08/04 05:20:07;;;;;;;;;;;;;;;32.22;39.52;98956.06;5032360;28;20361;-78
2021/08/04 05:22:33;;;;;;;;;;;;;;;32.23;39.47;98959.63;5031556;28;19913;-77
2021/08/04 05:24:58;;;;;;;;;;;;;;;32.24;39.44;98948.13;5031622;28;20043;-78
2021/08/04 05:27:23;;;;;;;;;;;;;;;32.19;39.38;98947.81;5032112;28;19962;-78
2021/08/04 05:29:48;;;;;;;;;;;;;;;32.20;39.53;98954.91;5031638;28;19913;-78
2021/08/04 05:32:14;;;;;;;;;;;;;;;32.17;39.53;98959.31;5030678;28;20307;-78
2021/08/04 05:34:39;;;;;;;;;;;;;;;32.23;39.20;98963.19;5031699;28;20055;-78
2021/08/04 05:37:04;;;;;;;;;;;;;;;32.38;39.04;98971.19;5031625;28;19920;-78
2021/08/04 05:39:30;;;;;;;;;;;;;;;32.55;38.93;98958.19;5031832;28;20372;-78
2021/08/04 05:41:55;;;;;;;;;;;;;;;32.82;38.58;98955.25;5032128;28;20370;-78
2021/08/04 05:44:20;;;;;;;;;;;;;;;33.18;37.68;98965.50;5031470;28;19917;-78
2021/08/04 05:46:46;;;;;;;;;;;;;;;33.53;36.89;98956.75;5031181;28;19913;-78
2021/08/04 05:49:11;;;;;;;;;;;;;;;33.96;36.29;98966.75;5031729;28;20012;-78
2021/08/04 05:51:36;;;;;;;;;;;;;;;34.40;35.72;98960.00;5030244;28;19916;-78
2021/08/04 05:54:01;;;;;;;;;;;;;;;34.84;35.18;98967.84;5030258;28;19913;-77
2021/08/04 05:56:27;;;;;;;;;;;;;;;35.23;33.24;98974.16;5031979;28;19924;-78
2021/08/04 05:58:52;;;;;;;;;;;;;;;35.56;32.98;98969.13;5031525;28;19917;-78
2021/08/04 06:01:17;;;;;;;;;;;;;;;35.92;32.67;98983.84;5031662;28;19967;-78
2021/08/04 06:03:42;;;;;;;;;;;;;;;36.20;32.21;98976.47;5031504;28;20321;-78
2021/08/04 06:06:09;;;;;;;;;;;;;;;36.45;31.50;98979.59;5031425;28;19917;-78
2021/08/04 06:08:35;;;;;;;;;;;;;;;36.71;30.69;98982.97;5031106;28;20047;-78
2021/08/04 06:11:00;;;;;;;;;;;;;;;36.91;30.09;98979.06;5031389;28;20000;-78
2021/08/04 06:13:25;;;;;;;;;;;;;;;36.90;29.80;98980.28;5032309;28;19986;-78
2021/08/04 06:15:53;;;;;;;;;;;;;;;37.02;29.39;98979.41;5033900;28;19920;-77
2021/08/04 06:18:18;;;;;;;;;;;;;;;36.89;29.70;98979.53;5035336;28;20015;-77
2021/08/04 06:20:43;;;;;;;;;;;;;;;37.02;29.79;98976.63;5033940;28;19953;-77
2021/08/04 06:23:09;;;;;;;;;;;;;;;37.08;29.49;98969.19;5035216;28;20300;-78
2021/08/04 06:25:34;;;;;;;;;;;;;;;37.22;28.20;98969.84;5033749;28;20006;-78
2021/08/04 06:27:59;;;;;;;;;;;;;;;37.33;27.75;98973.75;5033897;28;19920;-79
2021/08/04 06:30:25;;;;;;;;;;;;;;;37.31;27.53;98970.66;5035109;28;19920;-78
2021/08/04 06:32:50;;;;;;;;;;;;;;;37.31;27.97;98973.44;5035221;28;19913;-78
2021/08/04 06:35:15;;;;;;;;;;;;;;;37.37;28.21;98984.03;5035122;28;20196;-77
2021/08/04 06:37:40;;;;;;;;;;;;;;;37.33;28.39;98975.78;5034575;28;19919;-78
2021/08/04 06:40:06;;;;;;;;;;;;;;;37.28;28.80;98981.94;5035023;28;20012;-78
2021/08/04 06:42:31;;;;;;;;;;;;;;;37.29;29.14;98978.72;5035292;28;19913;-78
2021/08/04 06:44:57;;;;;;;;;;;;;;;37.27;29.07;98986.75;5033452;28;19979;-78
2021/08/04 06:47:22;;;;;;;;;;;;;;;37.06;29.49;98984.84;5034833;28;19920;-77
2021/08/04 06:49:47;;;;;;;;;;;;;;;37.00;29.83;98977.09;5034394;28;20114;-77
2021/08/04 06:52:12;;;;;;;;;;;;;;;36.96;29.61;98972.88;5035120;28;19980;-78
2021/08/04 06:54:38;;;;;;;;;;;;;;;36.83;29.73;98981.34;5034467;28;19917;-78
2021/08/04 06:57:03;;;;;;;;;;;;;;;36.55;30.37;98972.84;5035257;28;19920;-78
2021/08/04 06:59:28;;;;;;;;;;;;;;;36.38;30.40;98972.28;5034336;28;19913;-77
2021/08/04 07:01:54;;;;;;;;;;;;;;;36.10;30.70;98977.63;5033029;28;19913;-77
2021/08/04 07:04:19;;;;;;;;;;;;;;;35.87;30.78;98974.03;5034667;28;19919;-77
2021/08/04 07:06:54;;;;;;;;;;;;;;;35.64;31.71;98980.03;5034229;28;19920;-78
2021/08/04 07:09:19;;;;;;;;;;;;;;;35.51;31.79;98977.25;5034366;28;20288;-78
2021/08/04 07:11:45;;;;;;;;;;;;;;;35.42;31.82;98977.97;5034221;28;19966;-77
2021/08/04 07:14:11;;;;;;;;;;;;;;;35.34;32.34;98979.38;5034080;28;19920;-78
2021/08/04 07:16:36;;;;;;;;;;;;;;;35.12;31.92;98977.31;5032621;28;19920;-77
2021/08/04 07:19:01;;;;;;;;;;;;;;;34.90;32.65;98975.22;5034076;28;19913;-77
2021/08/04 07:21:27;;;;;;;;;;;;;;;34.88;32.84;98969.31;5033962;28;20023;-77
2021/08/04 07:23:52;;;;;;;;;;;;;;;34.83;33.22;98971.81;5033794;28;20391;-78
2021/08/04 07:26:18;;;;;;;;;;;;;;;34.77;32.83;98972.38;5033608;28;19998;-78
2021/08/04 07:28:44;;;;;;;;;;;;;;;34.72;33.47;98961.84;5033527;28;19913;-77
2021/08/04 07:31:09;;;;;;;;;;;;;;;34.71;32.72;98960.28;5034133;28;20366;-78
2021/08/04 07:33:34;;;;;;;;;;;;;;;34.47;33.09;98954.25;5034408;28;19979;-78
2021/08/04 07:35:59;;;;;;;;;;;;;;;34.39;33.48;98959.25;5033925;28;19913;-77
2021/08/04 07:38:25;;;;;;;;;;;;;;;34.29;32.46;98960.31;5033662;28;19913;-78
2021/08/04 07:40:50;;;;;;;;;;;;;;;34.14;33.13;98951.59;5033758;28;19913;-77
2021/08/04 07:43:15;;;;;;;;;;;;;;;34.14;33.55;98957.16;5034076;28;20187;-77
2021/08/04 07:45:40;;;;;;;;;;;;;;;34.10;32.96;98948.91;5033803;28;20276;-77
2021/08/04 07:48:06;;;;;;;;;;;;;;;34.05;33.31;98948.69;5033920;28;20360;-77
2021/08/04 07:50:31;;;;;;;;;;;;;;;34.11;33.34;98956.03;5033960;28;19913;-77
2021/08/04 07:52:56;;;;;;;;;;;;;;;34.16;32.92;98946.41;5033455;28;19913;-77
2021/08/04 07:55:21;;;;;;;;;;;;;;;34.19;33.19;98947.50;5033940;28;20296;-77
2021/08/04 07:57:47;;;;;;;;;;;;;;;34.24;32.67;98949.72;5033293;28;20054;-77
2021/08/04 08:00:12;;;;;;;;;;;;;;;34.25;33.27;98949.31;5033926;28;20375;-77
2021/08/04 08:02:38;;;;;;;;;;;;;;;34.25;33.38;98941.00;5033692;28;20285;-77
2021/08/04 08:05:03;;;;;;;;;;;;;;;34.31;32.52;98941.19;5033680;28;20303;-77
2021/08/04 08:07:28;;;;;;;;;;;;;;;34.40;32.37;98943.34;5033661;28;19913;-77
2021/08/04 08:09:54;;;;;;;;;;;;;;;34.48;31.79;98944.72;5033172;28;19913;-77
2021/08/04 08:12:19;;;;;;;;;;;;;;;34.58;32.14;98942.81;5033601;28;19913;-77
2021/08/04 08:14:44;;;;;;;;;;;;;;;34.66;31.49;98946.19;5033230;28;19913;-77
2021/08/04 08:17:10;;;;;;;;;;;;;;;34.54;31.27;98934.59;5032349;28;20281;-77
2021/08/04 08:19:35;;;;;;;;;;;;;;;34.49;31.57;98943.50;5033814;28;20020;-77
2021/08/04 08:22:00;;;;;;;;;;;;;;;34.45;31.93;98938.03;5032914;28;20292;-77
2021/08/04 08:24:26;;;;;;;;;;;;;;;34.43;31.64;98942.47;5033643;28;20423;-77
2021/08/04 08:26:51;;;;;;;;;;;;;;;34.37;30.84;98930.38;5033132;28;19960;-77
2021/08/04 08:29:17;;;;;;;;;;;;;;;34.37;30.69;98933.91;5033205;28;19919;-77
2021/08/04 08:31:42;;;;;;;;;;;;;;;34.39;31.34;98930.72;5032591;28;20324;-77
2021/08/04 08:34:08;;;;;;;;;;;;;;;34.32;30.81;98940.75;5032801;28;19917;-77
2021/08/04 08:36:34;;;;;;;;;;;;;;;34.32;31.34;98937.22;5032512;28;19917;-77
2021/08/04 08:38:59;;;;;;;;;;;;;;;34.35;31.00;98930.00;5031583;28;19913;-77
2021/08/04 08:41:25;;;;;;;;;;;;;;;34.38;31.14;98926.38;5033060;28;20486;-77
2021/08/04 08:43:51;;;;;;;;;;;;;;;34.39;30.41;98931.47;5032788;28;19956;-77
2021/08/04 08:46:16;;;;;;;;;;;;;;;34.39;30.44;98920.38;5032631;28;20011;-77
2021/08/04 08:48:48;;;;;;;;;;;;;;;34.45;31.00;98920.63;5033205;28;20009;-77
2021/08/04 08:51:15;;;;;;;;;;;;;;;34.33;30.93;98922.13;5033079;28;20372;-78
2021/08/04 08:53:40;;;;;;;;;;;;;;;34.21;30.95;98907.00;5032847;28;19967;-77
2021/08/04 08:56:06;;;;;;;;;;;;;;;34.21;31.15;98904.22;5032655;28;19913;-78
2021/08/04 08:58:31;;;;;;;;;;;;;;;34.21;30.77;98901.44;5031177;28;20402;-78
2021/08/04 09:00:57;;;;;;;;;;;;;;;34.12;30.52;98907.66;5031048;28;20305;-78
2021/08/04 09:03:22;;;;;;;;;;;;;;;34.03;30.72;98906.75;5032696;28;19913;-78
2021/08/04 09:05:48;;;;;;;;;;;;;;;33.94;30.46;98888.72;5032520;28;19971;-77
2021/08/04 09:08:21;;;;;;;;;;;;;;;33.90;30.54;98890.03;5032515;28;19913;-77
2021/08/04 09:10:46;;;;;;;;;;;;;;;33.90;30.37;98881.72;5031022;28;20380;-77
2021/08/04 09:13:11;;;;;;;;;;;;;;;33.87;31.06;98888.16;5032315;28;19920;-77
2021/08/04 09:15:41;;;;;;;;;;;;;;;33.81;31.25;98879.56;5030709;28;19913;-77
2021/08/04 09:18:11;;;;;;;;;;;;;;;33.83;31.25;98874.41;5031873;28;19920;-78
2021/08/04 09:20:53;;;;;;;;;;;;;;;33.88;31.26;98871.06;5031832;28;19913;-78
2021/08/04 09:23:20;;;;;;;;;;;;;;;33.94;30.82;98869.31;5032140;28;19968;-79
2021/08/04 09:26:00;;;;;;;;;;;;;;;34.00;29.45;98872.34;5029940;28;19917;-79
2021/08/04 09:28:26;;;;;;;;;;;;;;;34.04;29.76;98867.44;5030765;28;19920;-79
2021/08/04 09:30:58;;;;;;;;;;;;;;;34.13;30.01;98864.81;5031456;28;19913;-78
2021/08/04 09:33:26;;;;;;;;;;;;;;;34.20;28.90;98863.81;5031799;28;20378;-78
2021/08/04 09:35:53;;;;;;;;;;;;;;;34.25;28.43;98848.63;5031564;28;20004;-78
2021/08/04 09:38:21;;;;;;;;;;;;;;;34.26;28.62;98856.50;5031565;28;19917;-78
2021/08/04 09:41:07;;;;;;;;;;;;;;;34.24;28.94;98856.19;5031607;28;19913;-78
2021/08/04 09:43:32;;;;;;;;;;;;;;;34.20;29.43;98852.72;5030258;28;19967;-78
2021/08/04 09:45:57;;;;;;;;;;;;;;;34.26;29.36;98850.16;5031199;28;20323;-78
2021/08/04 09:48:23;;;;;;;;;;;;;;;34.24;29.43;98836.75;5030492;28;19952;-78
2021/08/04 09:50:53;;;;;;;;;;;;;;;34.32;29.35;98838.06;5029948;28;19920;-78
2021/08/04 09:53:23;;;;;;;;;;;;;;;34.37;28.80;98842.31;5031670;28;19916;-78
2021/08/04 09:56:07;;;;;;;;;;;;;;;34.42;29.00;98833.44;5031335;28;20011;-79
2021/08/04 09:58:32;;;;;;;;;;;;;;;34.44;28.91;98828.22;5031291;28;20183;-78
2021/08/04 10:01:01;;;;;;;;;;;;;;;34.52;28.21;98828.78;5030104;28;20305;-78
2021/08/04 10:03:27;;;;;;;;;;;;;;;34.48;28.03;98825.31;5031453;28;19919;-78
2021/08/04 10:05:54;;;;;;;;;;;;;;;34.47;28.00;98819.00;5031297;28;20008;-79
2021/08/04 10:08:19;;;;;;;;;;;;;;;34.46;28.32;98827.75;5029850;28;19913;-78
2021/08/04 10:10:48;;;;;;;;;;;;;;;34.48;28.07;98814.22;5030102;28;19920;-78
2021/08/04 10:13:14;;;;;;;;;;;;;;;34.53;28.12;98813.66;5030157;28;20003;-78
2021/08/04 10:15:41;;;;;;;;;;;;;;;34.60;28.08;98810.66;5031126;28;20289;-78
2021/08/04 10:18:17;;;;;;;;;;;;;;;34.68;27.92;98810.41;5031154;28;19998;-78
2021/08/04 10:20:43;;;;;;;;;;;;;;;34.78;28.19;98806.53;5029973;28;19967;-78
2021/08/04 10:23:12;;;;;;;;;;;;;;;34.80;27.60;98790.16;5030592;28;19917;-78
2021/08/04 10:25:37;;;;;;;;;;;;;;;34.85;27.31;98799.94;5030966;28;20415;-78
2021/08/04 10:28:04;;;;;;;;;;;;;;;34.87;27.26;98791.94;5029602;28;19913;-78
2021/08/04 10:30:32;;;;;;;;;;;;;;;34.88;26.07;98787.97;5031133;28;19913;-78
2021/08/04 10:32:57;;;;;;;;;;;;;;;34.95;26.36;98791.28;5030918;28;19913;-78
2021/08/04 10:35:23;;;;;;;;;;;;;;;34.91;26.27;98790.63;5031310;28;19920;-78
2021/08/04 10:37:49;;;;;;;;;;;;;;;34.78;26.82;98787.09;5029687;28;19999;-78
2021/08/04 10:40:15;;;;;;;;;;;;;;;34.72;26.37;98780.56;5031242;28;19952;-78
2021/08/04 10:42:42;;;;;;;;;;;;;;;34.68;25.73;98785.44;5031241;28;20015;-78
2021/08/04 10:45:22;;;;;;;;;;;;;;;34.66;26.07;98776.78;5030606;28;19939;-78
2021/08/04 10:47:51;;;;;;;;;;;;;;;34.72;26.66;98775.00;5031188;28;19978;-78
2021/08/04 10:50:17;;;;;;;;;;;;;;;34.70;26.05;98767.09;5031063;28;19921;-78
2021/08/04 10:52:57;;;;;;;;;;;;;;;34.77;26.64;98766.09;5030770;28;20028;-78
2021/08/04 10:55:23;;;;;;;;;;;;;;;34.87;26.39;98764.16;5030681;28;19919;-78
2021/08/04 10:58:03;;;;;;;;;;;;;;;34.96;24.86;98772.59;5030735;28;20388;-78
2021/08/04 11:00:29;;;;;;;;;;;;;;;35.04;23.42;98773.16;5033796;28;19923;-78
2021/08/04 11:02:54;;;;;;;;;;;;;;;35.03;23.10;98768.81;5033298;28;20012;-78
2021/08/04 11:05:19;;;;;;;;;;;;;;;35.07;23.48;98763.91;5034381;28;19913;-78
2021/08/04 11:08:03;;;;;;;;;;;;;;;35.13;23.29;98767.66;5033278;28;19952;-78
2021/08/04 11:10:36;;;;;;;;;;;;;;;35.10;23.48;98761.00;5034459;28;19917;-78
2021/08/04 11:13:01;;;;;;;;;;;;;;;35.08;23.69;98755.13;5034456;28;19917;-78
2021/08/04 11:15:30;;;;;;;;;;;;;;;35.11;23.38;98757.00;5034890;28;19970;-77
2021/08/04 11:17:59;;;;;;;;;;;;;;;35.16;23.42;98743.75;5032863;28;19921;-78
2021/08/04 11:20:24;;;;;;;;;;;;;;;35.25;23.74;98744.59;5033189;28;19912;-78
2021/08/04 11:22:53;;;;;;;;;;;;;;;35.21;23.74;98752.28;5033077;28;20289;-78
2021/08/04 11:25:24;;;;;;;;;;;;;;;35.18;23.82;98744.84;5032574;28;19924;-77
2021/08/04 11:27:53;;;;;;;;;;;;;;;35.18;23.97;98738.50;5034377;28;19917;-77
2021/08/04 11:30:38;;;;;;;;;;;;;;;35.23;24.01;98730.38;5032886;28;19917;-77
2021/08/04 11:33:19;;;;;;;;;;;;;;;35.37;24.00;98725.53;5033291;28;19913;-77
2021/08/04 11:36:03;;;;;;;;;;;;;;;35.45;23.90;98715.72;5032991;28;20361;-77
2021/08/04 11:38:49;;;;;;;;;;;;;;;35.47;23.32;98729.91;5032984;28;20012;-77
2021/08/04 11:41:15;;;;;;;;;;;;;;;35.41;24.07;98723.41;5033241;28;19920;-77
2021/08/04 11:43:41;;;;;;;;;;;;;;;35.40;24.33;98716.28;5032682;28;19913;-77
2021/08/04 11:46:06;;;;;;;;;;;;;;;35.36;24.14;98715.63;5032394;28;19935;-78
2021/08/04 11:48:47;;;;;;;;;;;;;;;35.34;24.53;98715.28;5032609;28;19913;-77
2021/08/04 11:51:13;;;;;;;;;;;;;;;35.38;24.77;98713.97;5033866;28;19940;-78
2021/08/04 11:53:41;;;;;;;;;;;;;;;35.38;22.88;98718.75;5033531;28;19943;-79
2021/08/04 11:56:07;;;;;;;;;;;;;;;35.37;23.58;98711.63;5033493;28;19913;-78
2021/08/04 11:58:32;;;;;;;;;;;;;;;35.39;23.79;98704.41;5033618;28;20332;-78
2021/08/04 12:01:17;;;;;;;;;;;;;;;35.50;23.28;98704.00;5032245;28;19917;-78
2021/08/04 12:03:42;;;;;;;;;;;;;;;35.61;23.74;98708.38;5033389;28;19913;-78
2021/08/04 12:06:17;;;;;;;;;;;;;;;35.73;23.77;98707.50;5033348;28;19944;-78
2021/08/04 12:08:43;;;;;;;;;;;;;;;35.85;23.24;98700.28;5033463;28;20016;-78
2021/08/04 12:11:09;;;;;;;;;;;;;;;35.97;23.02;98693.88;5031007;28;20007;-78
2021/08/04 12:13:34;;;;;;;;;;;;;;;36.01;22.72;98686.16;5033653;28;20190;-78
2021/08/04 12:16:00;;;;;;;;;;;;;;;36.12;22.98;98696.06;5033099;28;19917;-78
2021/08/04 12:18:25;;;;;;;;;;;;;;;36.19;22.34;98679.88;5033251;28;19920;-78
2021/08/04 12:20:52;;;;;;;;;;;;;;;36.25;21.41;98682.81;5031929;28;19913;-78
2021/08/04 12:23:22;;;;;;;;;;;;;;;36.27;21.18;98680.34;5032979;28;20008;-78
2021/08/04 12:25:56;;;;;;;;;;;;;;;36.21;21.19;98676.63;5033024;28;19917;-78
2021/08/04 12:28:27;;;;;;;;;;;;;;;36.22;21.52;98678.19;5032996;28;19917;-79
2021/08/04 12:30:52;;;;;;;;;;;;;;;36.15;21.65;98665.31;5032788;28;19917;-77
2021/08/04 12:33:20;;;;;;;;;;;;;;;36.16;21.51;98666.88;5031650;28;20323;-77
2021/08/04 12:35:49;;;;;;;;;;;;;;;36.17;21.96;98668.41;5032882;28;20007;-77
2021/08/04 12:38:16;;;;;;;;;;;;;;;36.22;22.57;98664.25;5031220;28;19913;-78
2021/08/04 12:40:46;;;;;;;;;;;;;;;36.28;22.54;98661.63;5031505;28;19960;-77
2021/08/04 12:43:12;;;;;;;;;;;;;;;36.32;21.94;98657.47;5032631;28;19913;-77
2021/08/04 12:46:04;;;;;;;;;;;;;;;36.30;22.10;98665.50;5032705;28;19979;-77
2021/08/04 12:48:37;;;;;;;;;;;;;;;36.35;22.32;98647.41;5031054;28;19913;-77